createdAt,value
2022-08-24T00:04:37.611Z,19.24
2022-08-24T00:09:41.783Z,19.20
2022-08-24T00:14:45.934Z,19.13
2022-08-24T00:19:50.117Z,19.06
2022-08-24T00:24:54.274Z,18.96
2022-08-24T00:29:58.435Z,18.84
2022-08-24T00:35:02.627Z,18.78
2022-08-24T00:40:06.810Z,18.75
2022-08-24T00:45:10.916Z,18.65
2022-08-24T00:50:15.080Z,18.50
2022-08-24T00:55:19.247Z,18.39
2022-08-24T01:00:23.364Z,18.31
2022-08-24T01:05:27.508Z,18.24
2022-08-24T01:10:31.687Z,18.18
2022-08-24T01:15:35.838Z,18.17
2022-08-24T01:20:40.007Z,18.09
2022-08-24T01:25:44.163Z,18.04
2022-08-24T01:30:48.322Z,17.91
2022-08-24T01:35:52.501Z,17.85
2022-08-24T01:40:56.650Z,17.90
2022-08-24T01:46:00.800Z,17.94
2022-08-24T01:51:04.968Z,17.93
2022-08-24T01:56:09.100Z,17.94
2022-08-24T02:01:13.293Z,17.79
2022-08-24T02:06:17.463Z,17.68
2022-08-24T02:11:21.620Z,17.63
2022-08-24T02:16:25.787Z,17.62
2022-08-24T02:21:29.952Z,17.59
2022-08-24T02:26:34.093Z,17.52
2022-08-24T02:31:38.297Z,17.45
2022-08-24T02:36:42.390Z,17.45
2022-08-24T02:41:46.559Z,17.47
2022-08-24T02:46:50.734Z,17.38
2022-08-24T02:51:54.882Z,17.27
2022-08-24T02:56:59.014Z,17.18
2022-08-24T03:02:03.235Z,17.22
2022-08-24T03:07:07.359Z,17.16
2022-08-24T03:12:11.516Z,17.08
2022-08-24T03:17:15.702Z,17.01
2022-08-24T03:22:19.832Z,16.98
2022-08-24T03:27:24.009Z,17.02
2022-08-24T03:32:28.167Z,16.95
2022-08-24T03:37:32.292Z,16.89
2022-08-24T03:42:36.489Z,16.85
2022-08-24T03:47:40.663Z,16.90
2022-08-24T03:52:44.809Z,16.89
2022-08-24T03:57:48.962Z,16.92
2022-08-24T04:02:53.141Z,16.84
2022-08-24T04:07:57.291Z,16.86
2022-08-24T04:13:01.639Z,16.82
2022-08-24T04:18:05.586Z,16.73
2022-08-24T04:23:09.764Z,16.62
2022-08-24T04:28:13.910Z,16.54
2022-08-24T04:33:18.074Z,16.56
2022-08-24T04:38:22.230Z,16.58
2022-08-24T04:43:26.386Z,16.67
2022-08-24T04:48:30.548Z,16.78
2022-08-24T04:53:34.761Z,16.75
2022-08-24T04:58:38.896Z,16.69
2022-08-24T05:03:43.034Z,16.82
2022-08-24T05:08:47.201Z,16.96
2022-08-24T05:13:49.465Z,16.98
2022-08-24T05:18:53.584Z,17.00
2022-08-24T05:23:59.298Z,17.03
2022-08-24T05:29:01.954Z,17.09
2022-08-24T05:34:06.095Z,17.18
2022-08-24T05:39:11.530Z,17.34
2022-08-24T05:44:14.428Z,17.39
2022-08-24T05:49:18.580Z,17.54
2022-08-24T05:54:22.760Z,17.67
2022-08-24T05:59:26.882Z,17.87
2022-08-24T06:04:31.059Z,18.05
2022-08-24T06:09:35.198Z,18.31
2022-08-24T06:14:39.352Z,18.66
2022-08-24T06:19:43.528Z,18.88
2022-08-24T06:24:47.715Z,19.17
2022-08-24T06:29:51.828Z,19.42
2022-08-24T06:34:56.039Z,19.81
2022-08-24T06:40:00.346Z,20.16
2022-08-24T06:45:04.344Z,20.38
2022-08-24T06:50:08.509Z,20.60
2022-08-24T06:55:12.661Z,20.75
2022-08-24T07:00:16.798Z,20.90
2022-08-24T07:05:20.981Z,21.01
2022-08-24T07:10:25.729Z,21.12
2022-08-24T07:15:29.296Z,21.35
2022-08-24T07:20:33.459Z,21.69
2022-08-24T07:25:37.603Z,22.03
2022-08-24T07:30:41.787Z,22.39
2022-08-24T07:35:45.887Z,22.65
2022-08-24T07:41:14.300Z,22.92
2022-08-24T07:45:54.316Z,23.13
2022-08-24T07:50:58.393Z,23.47
2022-08-24T07:56:02.559Z,23.68
2022-08-24T08:01:06.774Z,23.96
2022-08-24T08:06:16.125Z,24.15
2022-08-24T08:11:15.057Z,24.38
2022-08-24T08:16:19.229Z,24.59
2022-08-24T08:21:23.361Z,24.77
2022-08-24T08:26:27.504Z,24.96
2022-08-24T08:31:31.755Z,25.18
2022-08-24T08:36:35.821Z,25.41
2022-08-24T08:41:39.976Z,25.67
2022-08-24T08:46:44.113Z,25.87
2022-08-24T08:51:48.314Z,26.09
2022-08-24T08:56:54.978Z,26.28
2022-08-24T09:01:56.683Z,26.54
2022-08-24T09:07:00.789Z,26.71
2022-08-24T09:12:04.941Z,26.93
2022-08-24T09:17:12.909Z,27.02
2022-08-24T09:22:13.221Z,27.30
2022-08-24T09:27:17.422Z,27.50
2022-08-24T09:32:21.564Z,27.82
2022-08-24T09:37:25.749Z,27.96
2022-08-24T09:42:29.858Z,28.16
2022-08-24T09:47:34.032Z,28.38
2022-08-24T09:52:38.214Z,28.29
2022-08-24T09:57:59.931Z,28.51
2022-08-24T10:02:46.717Z,28.55
2022-08-24T10:07:50.762Z,28.71
2022-08-24T10:12:56.464Z,28.86
2022-08-24T10:17:59.081Z,28.93
2022-08-24T10:23:03.164Z,29.21
2022-08-24T10:28:07.342Z,29.40
2022-08-24T10:33:11.471Z,29.37
2022-08-24T10:38:15.629Z,29.34
2022-08-24T10:43:17.924Z,29.31
2022-08-24T10:48:22.069Z,29.60
2022-08-24T10:53:26.218Z,29.79
2022-08-24T10:58:30.349Z,29.78
2022-08-24T11:03:34.638Z,29.79
2022-08-24T11:08:38.695Z,29.97
2022-08-24T11:13:42.835Z,29.91
2022-08-24T11:18:47.001Z,30.19
2022-08-24T11:23:51.165Z,30.30
2022-08-24T11:28:55.345Z,30.35
2022-08-24T11:33:59.529Z,30.48
2022-08-24T11:39:03.635Z,30.38
2022-08-24T11:44:07.839Z,30.46
2022-08-24T11:49:11.967Z,30.74
2022-08-24T11:54:16.116Z,30.94
2022-08-24T11:59:20.279Z,30.93
2022-08-24T12:04:24.414Z,30.95
2022-08-24T12:09:28.619Z,31.03
2022-08-24T12:14:32.767Z,31.12
2022-08-24T12:19:36.903Z,31.38
2022-08-24T12:24:41.076Z,31.62
2022-08-24T12:29:45.250Z,31.58
2022-08-24T12:34:50.086Z,31.43
2022-08-24T12:39:53.698Z,31.26
2022-08-24T12:44:57.691Z,31.46
2022-08-24T12:50:01.907Z,31.50
2022-08-24T12:55:06.012Z,31.77
2022-08-24T13:00:10.190Z,31.87
2022-08-24T13:05:15.448Z,32.09
2022-08-24T13:10:18.516Z,32.25
2022-08-24T13:15:22.688Z,32.13
2022-08-24T13:20:26.804Z,32.01
2022-08-24T13:25:31.012Z,32.00
2022-08-24T13:30:35.184Z,32.17
2022-08-24T13:35:39.275Z,32.22
2022-08-24T13:40:43.470Z,32.02
2022-08-24T13:45:47.604Z,31.95
2022-08-24T13:50:51.759Z,31.92
2022-08-24T13:55:55.941Z,32.08
2022-08-24T14:01:01.890Z,32.26
2022-08-24T14:06:04.267Z,32.58
2022-08-24T14:11:08.420Z,32.37
2022-08-24T14:16:12.656Z,32.30
2022-08-24T14:21:17.949Z,32.08
2022-08-24T14:26:20.917Z,32.18
2022-08-24T14:31:25.132Z,32.34
2022-08-24T14:36:29.192Z,32.29
2022-08-24T14:41:33.407Z,32.35
2022-08-24T14:46:37.586Z,32.44
2022-08-24T14:51:41.680Z,32.35
2022-08-24T14:56:45.869Z,32.46
2022-08-24T15:01:50.051Z,32.57
2022-08-24T15:06:54.145Z,32.22
2022-08-24T15:11:58.341Z,32.10
2022-08-24T15:17:02.474Z,32.35
2022-08-24T15:22:06.646Z,32.18
2022-08-24T15:27:10.783Z,32.36
2022-08-24T15:32:15.105Z,32.36
2022-08-24T15:37:19.123Z,32.45
2022-08-24T15:42:23.259Z,32.39
2022-08-24T15:47:27.449Z,32.27
2022-08-24T15:52:31.616Z,32.63
2022-08-24T15:57:35.759Z,33.67
2022-08-24T16:02:39.939Z,34.60
2022-08-24T16:07:44.092Z,35.56
2022-08-24T16:12:46.313Z,36.05
2022-08-24T16:17:51.506Z,36.77
2022-08-24T16:22:58.480Z,36.62
2022-08-24T16:27:58.884Z,36.60
2022-08-24T16:38:07.144Z,36.63
2022-08-24T16:43:09.388Z,36.29
2022-08-24T16:48:13.585Z,37.22
2022-08-24T16:53:17.758Z,36.10
2022-08-24T16:58:21.886Z,34.22
2022-08-24T17:03:26.052Z,33.16
2022-08-24T17:08:30.208Z,32.28
2022-08-24T17:18:38.509Z,31.15
2022-08-24T17:23:42.675Z,30.64
2022-08-24T17:28:46.840Z,30.32
2022-08-24T17:33:51.047Z,29.94
2022-08-24T17:38:55.854Z,29.63
2022-08-24T17:43:59.362Z,29.40
2022-08-24T17:49:03.482Z,29.20
2022-08-24T17:54:07.641Z,29.02
2022-08-24T17:59:11.813Z,28.71
2022-08-24T18:04:16.004Z,28.56
2022-08-24T18:09:20.115Z,28.39
2022-08-24T18:14:24.274Z,28.30
2022-08-24T18:19:28.407Z,28.12
2022-08-24T18:24:32.738Z,27.78
2022-08-24T18:29:36.888Z,27.56
2022-08-24T18:34:40.912Z,27.43
2022-08-24T18:39:45.103Z,27.17
2022-08-24T18:44:49.222Z,26.82
2022-08-24T18:49:53.385Z,26.49
2022-08-24T18:54:57.551Z,26.12
2022-08-24T19:00:01.682Z,25.89
2022-08-24T19:05:05.878Z,25.62
2022-08-24T19:10:10.024Z,25.35
2022-08-24T19:15:32.249Z,25.11
2022-08-24T19:20:18.346Z,24.88
2022-08-24T19:25:22.488Z,24.72
2022-08-24T19:30:26.655Z,24.57
2022-08-24T19:35:30.798Z,24.35
2022-08-24T19:40:34.974Z,24.16
2022-08-24T19:45:39.109Z,23.99
2022-08-24T19:50:43.280Z,23.82
2022-08-24T19:55:50.074Z,23.70
2022-08-24T20:00:51.937Z,23.59
2022-08-24T20:05:57.754Z,23.47
2022-08-24T20:10:59.923Z,23.33
2022-08-24T20:16:04.148Z,23.23
2022-08-24T20:21:08.238Z,23.16
2022-08-24T20:26:12.388Z,23.12
2022-08-24T20:31:16.635Z,23.07
2022-08-24T20:36:20.688Z,22.98
2022-08-24T20:41:24.888Z,22.83
2022-08-24T20:46:29.079Z,22.78
2022-08-24T20:51:33.189Z,22.68
2022-08-24T20:56:37.358Z,22.54
2022-08-24T21:01:41.511Z,22.37
2022-08-24T21:06:45.663Z,22.18
2022-08-24T21:11:49.826Z,22.04
2022-08-24T21:16:53.999Z,21.88
2022-08-24T21:21:58.116Z,21.77
2022-08-24T21:27:02.332Z,21.68
2022-08-24T21:32:06.484Z,21.51
2022-08-24T21:37:10.619Z,21.43
2022-08-24T21:42:14.750Z,21.42
2022-08-24T21:47:18.931Z,21.36
2022-08-24T21:52:23.080Z,21.32
2022-08-24T21:57:27.238Z,21.16
2022-08-24T22:02:31.480Z,21.03
2022-08-24T22:07:35.552Z,21.02
2022-08-24T22:12:37.828Z,21.03
2022-08-24T22:17:41.977Z,20.95
2022-08-24T22:22:46.187Z,20.93
2022-08-24T22:27:50.294Z,20.91
2022-08-24T22:32:54.478Z,20.83
2022-08-24T22:37:58.669Z,20.75
2022-08-24T22:43:02.877Z,20.71
2022-08-24T22:48:06.941Z,20.67
2022-08-24T22:53:11.106Z,20.62
2022-08-24T22:58:15.283Z,20.49
2022-08-24T23:03:19.419Z,20.45
2022-08-24T23:08:23.624Z,20.38
2022-08-24T23:13:28.794Z,20.23
2022-08-24T23:18:31.922Z,20.21
2022-08-24T23:23:36.081Z,20.14
2022-08-24T23:28:40.209Z,20.05
2022-08-24T23:33:44.416Z,20.02
2022-08-24T23:38:48.552Z,19.97
2022-08-24T23:43:52.722Z,19.93
2022-08-24T23:48:58.753Z,19.87
2022-08-24T23:54:01.013Z,19.80
2022-08-24T23:59:05.351Z,19.66
